Deersville, Ohio
Current Conditions -  °F | °C
As of 10:53 AM on Friday 28 Nov 2014 (Local Time) from KPHD Reporting Station
Broken Clouds Broken Clouds  
Wind Chill: 19°   Ceiling: 3500
Heat Index: 25°   Visibility: 10mi
Dew Point: 15°   Wind: 5mph
Humidity: 66%   Direction: 290°WNW
Pressure: 30.37"   Gusts: NA
Location:  40.31°N, 81.19°W
Report Text: KPHD 281553Z AUTO 29004KT 10SM FEW027 BKN035 BKN120 M04/M09 A3037 RMK AO2 SLP295 T10391094
Loading
Personal Weather Stations






























Interactive Weather Map New forecast layout! Learn more

10-Day Weather Forecast

Advertisements
Track Severe Weather on mobile